Time;durP1;ratioP1;P1;durP2;ratioP2;P2;SDS_P1;SDS_P2;PMS_P1;PMS_P2;Temp;Humidity;BMP_temperature;BMP_pressure;BME280_temperature;BME280_humidity;BME280_pressure;Samples;Min_cycle;Max_cycle;Signal;HPM_P1;HPM_P2
2023/05/31 00:01:35;;;;;;;20.77;12.10;;;14.20;62.40;;;;;;5010537;28;20412;-72
2023/05/31 00:04:02;;;;;;;21.33;11.90;;;14.20;62.60;;;;;;5011571;28;20400;-72
2023/05/31 00:06:27;;;;;;;18.95;12.30;;;14.30;62.00;;;;;;5012978;28;20404;-74
2023/05/31 00:08:53;;;;;;;18.00;12.30;;;14.20;62.70;;;;;;5013980;28;20389;-73
2023/05/31 00:11:18;;;;;;;21.48;12.07;;;14.10;64.20;;;;;;5014114;28;20416;-72
2023/05/31 00:13:44;;;;;;;18.63;11.43;;;14.10;64.00;;;;;;5013917;28;20400;-73
2023/05/31 00:16:10;;;;;;;22.53;12.80;;;14.20;63.50;;;;;;5014216;28;20385;-74
2023/05/31 00:18:36;;;;;;;21.13;11.80;;;14.10;63.70;;;;;;5033906;28;20392;-72
2023/05/31 00:21:01;;;;;;;16.77;11.20;;;14.20;62.50;;;;;;5035489;28;20392;-71
2023/05/31 00:23:27;;;;;;;18.60;12.02;;;14.20;62.60;;;;;;5026843;28;20400;-75
2023/05/31 00:25:52;;;;;;;19.93;12.63;;;14.20;62.90;;;;;;5015858;28;20448;-74
2023/05/31 00:28:18;;;;;;;19.33;11.83;;;14.10;63.70;;;;;;5017913;28;20786;-75
2023/05/31 00:30:43;;;;;;;19.90;12.13;;;13.90;66.10;;;;;;5017209;28;20719;-73
2023/05/31 00:33:11;;;;;;;17.67;11.63;;;14.00;65.20;;;;;;5015484;28;20796;-73
2023/05/31 00:35:36;;;;;;;16.73;11.52;;;14.10;64.40;;;;;;5014371;28;20396;-74
2023/05/31 00:38:05;;;;;;;19.95;11.60;;;14.00;65.10;;;;;;5015188;28;20380;-74
2023/05/31 00:40:30;;;;;;;17.92;11.65;;;14.00;65.20;;;;;;5014739;28;20496;-72
2023/05/31 00:42:56;;;;;;;19.13;11.23;;;14.00;64.30;;;;;;5013209;28;20479;-72
2023/05/31 00:45:22;;;;;;;17.03;10.80;;;14.10;63.70;;;;;;5012352;28;20462;-72
2023/05/31 00:47:47;;;;;;;14.57;10.27;;;14.00;64.90;;;;;;5013512;28;20494;-74
2023/05/31 00:50:14;;;;;;;17.67;10.90;;;13.90;66.00;;;;;;5013552;28;20749;-74
2023/05/31 00:52:40;;;;;;;18.55;11.90;;;13.90;66.20;;;;;;5013024;28;20381;-71
2023/05/31 00:55:06;;;;;;;17.20;11.35;;;13.90;65.80;;;;;;5012420;28;20381;-72
2023/05/31 00:57:32;;;;;;;19.27;11.57;;;13.90;65.30;;;;;;5013383;28;20757;-73
2023/05/31 00:59:58;;;;;;;19.05;12.10;;;13.90;66.10;;;;;;5012781;28;20396;-73
2023/05/31 01:02:23;;;;;;;19.17;11.30;;;13.80;66.50;;;;;;5012719;28;20399;-74
2023/05/31 01:04:49;;;;;;;15.88;10.57;;;13.90;66.60;;;;;;5012792;28;20384;-74
2023/05/31 01:07:15;;;;;;;18.90;11.38;;;13.90;66.20;;;;;;5012769;28;20488;-73
2023/05/31 01:09:42;;;;;;;20.23;11.65;;;13.90;66.00;;;;;;5011373;28;20818;-74
2023/05/31 01:12:28;;;;;;;23.33;11.67;;;13.80;66.10;;;;;;5012423;28;20449;-73
2023/05/31 01:15:22;;;;;;;20.85;11.43;;;13.60;68.80;;;;;;5012784;28;20384;-72
2023/05/31 01:17:55;;;;;;;20.02;12.15;;;13.70;69.00;;;;;;5012668;28;20778;-73
2023/05/31 01:20:24;;;;;;;22.02;12.13;;;13.40;71.80;;;;;;5012577;28;20723;-73
2023/05/31 01:22:57;;;;;;;17.67;11.43;;;13.50;72.00;;;;;;5012214;28;20384;-73
2023/05/31 01:26:05;;;;;;;16.65;10.43;;;13.60;70.60;;;;;;5012171;28;20389;-73
2023/05/31 01:28:35;;;;;;;16.05;11.38;;;13.70;69.40;;;;;;5013242;28;20861;-73
2023/05/31 01:31:04;;;;;;;18.63;11.77;;;13.70;69.40;;;;;;5011977;28;20412;-74
2023/05/31 01:33:30;;;;;;;17.77;11.17;;;13.70;68.90;;;;;;5010868;28;21016;-72
2023/05/31 01:35:56;;;;;;;20.00;11.77;;;13.70;68.40;;;;;;5012144;28;20385;-73
2023/05/31 01:38:22;;;;;;;16.40;10.53;;;13.70;68.30;;;;;;5010824;28;20404;-74
2023/05/31 01:40:48;;;;;;;16.10;10.83;;;13.60;68.60;;;;;;5010834;28;20395;-73
2023/05/31 01:43:15;;;;;;;16.27;10.70;;;13.60;70.30;;;;;;5012098;28;20423;-74
2023/05/31 01:45:41;;;;;;;19.00;11.27;;;13.60;69.30;;;;;;5012139;28;20968;-73
2023/05/31 01:48:08;;;;;;;23.70;12.20;;;13.60;69.80;;;;;;5011982;28;20710;-72
2023/05/31 01:50:35;;;;;;;20.15;10.63;;;13.50;69.80;;;;;;5010822;28;20397;-73
2023/05/31 01:53:01;;;;;;;18.25;11.70;;;13.60;70.20;;;;;;5012021;28;20411;-74
2023/05/31 01:55:28;;;;;;;20.08;10.90;;;13.30;72.50;;;;;;5011892;28;20413;-73
2023/05/31 01:57:55;;;;;;;23.08;11.20;;;13.30;73.40;;;;;;5011631;28;20385;-72
2023/05/31 02:00:22;;;;;;;18.40;11.27;;;13.40;72.90;;;;;;5011665;28;20389;-71
2023/05/31 02:02:50;;;;;;;19.23;10.87;;;13.40;72.60;;;;;;5011460;28;20901;-75
2023/05/31 02:05:15;;;;;;;17.50;11.27;;;13.20;75.40;;;;;;5011682;28;20396;-73
2023/05/31 02:07:43;;;;;;;20.27;10.60;;;13.40;73.20;;;;;;5011542;28;20499;-72
2023/05/31 02:10:09;;;;;;;15.90;10.88;;;13.40;71.70;;;;;;5011754;28;20463;-73
2023/05/31 02:12:35;;;;;;;18.23;10.43;;;13.50;71.00;;;;;;5011565;28;20392;-73
2023/05/31 02:15:01;;;;;;;17.23;11.10;;;13.40;73.10;;;;;;5011834;28;20836;-74
2023/05/31 02:17:28;;;;;;;17.33;10.63;;;13.40;72.20;;;;;;5012659;28;20380;-73
2023/05/31 02:19:54;;;;;;;20.05;10.60;;;13.30;73.00;;;;;;5014225;28;20586;-74
2023/05/31 02:22:21;;;;;;;17.73;11.45;;;13.40;71.80;;;;;;5024543;28;20384;-72
2023/05/31 02:24:47;;;;;;;18.27;10.90;;;13.40;72.90;;;;;;5024332;28;20408;-74
2023/05/31 02:27:14;;;;;;;19.25;10.57;;;13.50;71.50;;;;;;5017530;28;20444;-74
2023/05/31 02:29:39;;;;;;;16.77;10.23;;;13.40;72.00;;;;;;5010575;28;20393;-73
2023/05/31 02:32:05;;;;;;;22.40;11.68;;;13.50;71.10;;;;;;5011106;28;20400;-74
2023/05/31 02:34:31;;;;;;;21.73;11.20;;;13.60;70.20;;;;;;5011218;28;20389;-74
2023/05/31 02:36:57;;;;;;;16.90;11.30;;;13.60;69.60;;;;;;5009732;28;20408;-74
2023/05/31 02:39:24;;;;;;;20.05;12.23;;;13.50;70.80;;;;;;5011531;28;20397;-74
2023/05/31 02:41:50;;;;;;;22.58;12.48;;;13.40;71.50;;;;;;5011137;28;20396;-73
2023/05/31 02:44:16;;;;;;;20.63;12.27;;;13.40;72.80;;;;;;5011788;28;20392;-74
2023/05/31 02:46:41;;;;;;;22.93;12.83;;;13.40;72.20;;;;;;5011925;28;20539;-74
2023/05/31 02:49:07;;;;;;;19.70;12.70;;;13.30;73.30;;;;;;5022693;28;20526;-73
2023/05/31 02:51:33;;;;;;;27.00;13.57;;;13.30;73.10;;;;;;5028135;28;20457;-74
2023/05/31 02:53:58;;;;;;;20.30;12.57;;;13.20;74.60;;;;;;5024418;28;20404;-74
2023/05/31 02:56:24;;;;;;;21.97;13.80;;;13.30;73.40;;;;;;5018324;28;20395;-73
2023/05/31 02:58:50;;;;;;;21.92;13.82;;;13.30;74.00;;;;;;5011105;28;20385;-73
2023/05/31 03:01:16;;;;;;;22.70;14.50;;;13.20;74.40;;;;;;5010938;28;20773;-72
2023/05/31 03:03:41;;;;;;;23.80;14.03;;;13.20;74.90;;;;;;5010959;28;20798;-72
2023/05/31 03:06:07;;;;;;;26.27;15.00;;;13.20;74.80;;;;;;5010841;28;20405;-72
2023/05/31 03:08:32;;;;;;;22.60;14.80;;;13.20;74.80;;;;;;5010802;28;20475;-73
2023/05/31 03:10:58;;;;;;;27.90;15.30;;;13.20;74.70;;;;;;5010606;28;20412;-73
2023/05/31 03:13:24;;;;;;;29.73;17.00;;;13.10;75.90;;;;;;5010899;28;20874;-73
2023/05/31 03:15:49;;;;;;;23.30;15.30;;;13.10;76.40;;;;;;5010970;28;20826;-74
2023/05/31 03:18:15;;;;;;;26.00;16.73;;;13.00;76.50;;;;;;5011014;28;20384;-73
2023/05/31 03:20:41;;;;;;;28.48;17.17;;;12.90;78.30;;;;;;5010787;28;20388;-72
2023/05/31 03:23:07;;;;;;;28.13;17.00;;;12.90;78.60;;;;;;5010771;28;20392;-74
2023/05/31 03:25:33;;;;;;;28.23;16.90;;;12.90;77.90;;;;;;5011567;28;20389;-74
2023/05/31 03:27:58;;;;;;;31.48;16.52;;;12.80;79.20;;;;;;5012204;28;20467;-73
2023/05/31 03:30:24;;;;;;;30.10;17.50;;;12.90;80.20;;;;;;5013324;28;20781;-72
2023/05/31 03:32:50;;;;;;;25.77;16.33;;;12.90;78.50;;;;;;5014357;28;20384;-72
2023/05/31 03:35:16;;;;;;;25.20;16.35;;;13.00;77.80;;;;;;5029694;28;20389;-72
2023/05/31 03:37:42;;;;;;;26.65;16.52;;;13.10;76.80;;;;;;5030460;28;20373;-72
2023/05/31 03:40:08;;;;;;;25.45;16.90;;;12.90;79.10;;;;;;5023932;28;20877;-72
2023/05/31 03:42:34;;;;;;;27.95;17.25;;;12.90;79.90;;;;;;5013407;28;20415;-72
2023/05/31 03:45:00;;;;;;;28.23;17.20;;;12.90;80.60;;;;;;5014201;28;20392;-72
2023/05/31 03:47:26;;;;;;;27.80;17.43;;;12.80;79.90;;;;;;5014768;28;20416;-72
2023/05/31 03:49:52;;;;;;;27.60;16.20;;;12.70;81.60;;;;;;5012411;28;20396;-72
2023/05/31 03:52:17;;;;;;;32.30;16.40;;;12.70;82.60;;;;;;5011960;28;20401;-72
2023/05/31 03:54:43;;;;;;;28.40;16.20;;;12.80;81.90;;;;;;5012086;28;20412;-74
2023/05/31 03:57:09;;;;;;;29.58;16.02;;;12.80;82.30;;;;;;5013794;28;20897;-74
2023/05/31 03:59:35;;;;;;;23.33;15.60;;;12.90;80.60;;;;;;5013070;28;20484;-74
2023/05/31 04:02:01;;;;;;;23.85;14.43;;;12.90;80.00;;;;;;5013410;28;20845;-73
2023/05/31 04:04:26;;;;;;;24.33;15.82;;;13.10;77.20;;;;;;5013842;28;20964;-73
2023/05/31 04:06:52;;;;;;;26.40;15.18;;;13.30;74.30;;;;;;5013828;28;20920;-74
2023/05/31 04:09:18;;;;;;;22.98;14.32;;;13.40;73.40;;;;;;5012564;28;20723;-73
2023/05/31 04:11:44;;;;;;;24.40;15.80;;;13.20;74.90;;;;;;5013904;28;20384;-74
2023/05/31 04:14:09;;;;;;;23.65;14.40;;;13.20;75.40;;;;;;5014068;28;20403;-71
2023/05/31 04:16:35;;;;;;;22.02;15.50;;;13.10;75.80;;;;;;5014067;28;20440;-74
2023/05/31 04:19:01;;;;;;;25.65;16.10;;;13.30;75.20;;;;;;5013490;28;20411;-74
2023/05/31 04:21:26;;;;;;;21.60;14.97;;;13.40;73.50;;;;;;5013547;28;20828;-72
2023/05/31 04:23:52;;;;;;;24.90;15.63;;;13.40;72.30;;;;;;5013820;28;20442;-71
2023/05/31 04:26:18;;;;;;;23.65;15.00;;;13.30;73.40;;;;;;5017066;28;20411;-72
2023/05/31 04:28:44;;;;;;;24.42;14.23;;;13.30;73.60;;;;;;5016904;28;20459;-74
2023/05/31 04:31:11;;;;;;;20.13;13.80;;;13.40;74.90;;;;;;5016510;28;20385;-71
2023/05/31 04:33:37;;;;;;;22.85;14.57;;;13.50;71.40;;;;;;5015256;28;20772;-73
2023/05/31 04:36:04;;;;;;;22.30;14.23;;;13.60;71.20;;;;;;5014805;28;20471;-72
2023/05/31 04:38:30;;;;;;;26.30;14.73;;;13.50;71.90;;;;;;5014472;28;20388;-73
2023/05/31 04:40:57;;;;;;;27.40;14.60;;;13.60;70.30;;;;;;5014238;28;20393;-72
2023/05/31 04:43:25;;;;;;;24.20;14.32;;;13.70;70.40;;;;;;5013499;28;20403;-71
2023/05/31 04:45:51;;;;;;;23.27;15.20;;;13.80;69.80;;;;;;5013177;28;20392;-71
2023/05/31 04:48:17;;;;;;;22.20;13.57;;;13.70;69.30;;;;;;5012848;28;20397;-72
2023/05/31 04:50:43;;;;;;;25.17;14.13;;;13.80;68.90;;;;;;5012816;28;20392;-71
2023/05/31 04:53:10;;;;;;;22.73;13.88;;;13.90;69.30;;;;;;5012596;28;20861;-71
2023/05/31 04:55:35;;;;;;;23.33;14.40;;;13.80;70.20;;;;;;5012769;28;20391;-71
2023/05/31 04:58:01;;;;;;;23.67;13.00;;;13.80;70.70;;;;;;5013099;28;20472;-72
2023/05/31 05:00:27;;;;;;;43.13;17.43;;;13.90;69.20;;;;;;5012878;28;20458;-71
2023/05/31 05:02:52;;;;;;;23.63;13.53;;;14.10;66.10;;;;;;5012422;28;20392;-71
2023/05/31 05:05:18;;;;;;;23.98;14.07;;;14.20;65.50;;;;;;5012693;28;20403;-73
2023/05/31 05:07:44;;;;;;;23.95;13.50;;;14.20;65.60;;;;;;5012710;28;20408;-72
2023/05/31 05:10:10;;;;;;;18.80;12.80;;;14.40;64.50;;;;;;5017606;28;20962;-74
2023/05/31 05:12:36;;;;;;;22.83;13.60;;;14.50;61.80;;;;;;5015829;28;20381;-73
2023/05/31 05:15:02;;;;;;;19.87;11.90;;;14.50;61.30;;;;;;5014189;28;20890;-72
2023/05/31 05:17:27;;;;;;;22.35;12.95;;;14.70;59.90;;;;;;5013765;28;20726;-74
2023/05/31 05:19:53;;;;;;;20.37;11.40;;;14.80;58.90;;;;;;5014291;28;20492;-74
2023/05/31 05:22:18;;;;;;;16.97;11.27;;;14.90;56.80;;;;;;5013892;28;20397;-75
2023/05/31 05:24:44;;;;;;;21.13;11.40;;;15.00;55.20;;;;;;5015563;28;20467;-73
2023/05/31 05:27:10;;;;;;;19.90;11.30;;;15.10;54.70;;;;;;5015627;28;20408;-74
2023/05/31 05:29:35;;;;;;;19.52;10.70;;;15.10;55.10;;;;;;5017354;28;20554;-73
2023/05/31 05:32:01;;;;;;;19.08;11.82;;;15.00;54.90;;;;;;5016856;28;20391;-74
2023/05/31 05:34:26;;;;;;;17.37;10.37;;;15.10;55.00;;;;;;5016962;28;20443;-73
2023/05/31 05:36:52;;;;;;;18.37;10.57;;;15.10;56.90;;;;;;5013950;28;20892;-74
2023/05/31 05:39:18;;;;;;;22.00;10.60;;;15.30;54.30;;;;;;5012902;28;20422;-74
2023/05/31 05:41:44;;;;;;;17.37;10.80;;;15.50;52.10;;;;;;5013279;28;20456;-74
2023/05/31 05:44:09;;;;;;;18.10;10.30;;;15.60;51.90;;;;;;5013336;28;20389;-72
2023/05/31 05:46:35;;;;;;;15.75;9.55;;;15.60;51.10;;;;;;5012734;28;20419;-76
2023/05/31 05:49:00;;;;;;;17.80;9.90;;;15.70;51.10;;;;;;5013270;28;20863;-72
2023/05/31 05:51:26;;;;;;;13.07;8.60;;;15.80;49.60;;;;;;5012885;28;20523;-73
2023/05/31 05:53:52;;;;;;;15.63;9.25;;;15.90;48.60;;;;;;5011639;28;20401;-73
2023/05/31 05:56:18;;;;;;;16.73;8.97;;;16.00;46.70;;;;;;5012798;28;20389;-74
2023/05/31 05:58:48;;;;;;;16.38;9.50;;;16.10;46.80;;;;;;5012219;28;20392;-73
2023/05/31 06:01:18;;;;;;;20.00;9.85;;;16.30;45.90;;;;;;5012282;28;20385;-74
2023/05/31 06:03:46;;;;;;;18.75;8.80;;;16.30;45.40;;;;;;5012043;28;20389;-74
2023/05/31 06:06:12;;;;;;;18.47;8.90;;;16.40;43.40;;;;;;5011349;28;20878;-74
2023/05/31 06:08:37;;;;;;;20.80;9.73;;;16.40;43.60;;;;;;5012862;28;20408;-72
2023/05/31 06:11:03;;;;;;;15.55;9.07;;;16.40;44.60;;;;;;5012467;28;20723;-74
2023/05/31 06:13:28;;;;;;;16.08;9.18;;;16.40;45.10;;;;;;5027465;28;20893;-73
2023/05/31 06:15:54;;;;;;;16.42;8.55;;;16.50;43.40;;;;;;5012526;28;20385;-73
2023/05/31 06:18:19;;;;;;;19.23;8.43;;;16.60;42.10;;;;;;5012400;28;20384;-74
2023/05/31 06:20:45;;;;;;;14.30;8.23;;;16.80;41.80;;;;;;5012261;28;20389;-73
2023/05/31 06:23:10;;;;;;;19.50;8.70;;;16.70;41.90;;;;;;5011840;28;20747;-73
2023/05/31 06:25:36;;;;;;;18.60;8.73;;;16.90;41.70;;;;;;5012721;28;20382;-74
2023/05/31 06:28:02;;;;;;;14.10;8.37;;;17.00;40.20;;;;;;5012008;28;20416;-73
2023/05/31 06:30:29;;;;;;;14.18;8.50;;;17.10;40.00;;;;;;5011157;28;21523;-74
2023/05/31 06:32:55;;;;;;;13.27;7.90;;;17.20;38.50;;;;;;5011664;28;20935;-75
2023/05/31 06:35:22;;;;;;;13.73;7.70;;;17.20;38.90;;;;;;5012698;28;20797;-74
2023/05/31 06:37:48;;;;;;;12.93;7.45;;;17.30;37.70;;;;;;5026982;28;20389;-73
2023/05/31 06:40:14;;;;;;;14.85;7.22;;;17.40;36.30;;;;;;5028964;28;20706;-73
2023/05/31 06:42:40;;;;;;;17.08;8.43;;;17.50;36.30;;;;;;5013185;28;20404;-74
2023/05/31 06:45:06;;;;;;;11.77;7.20;;;17.50;35.80;;;;;;5011890;28;20444;-75
2023/05/31 06:47:32;;;;;;;16.57;8.23;;;17.70;34.80;;;;;;5011604;28;20476;-74
2023/05/31 06:49:58;;;;;;;16.30;6.88;;;17.70;35.40;;;;;;5011838;28;20604;-74
2023/05/31 06:52:23;;;;;;;12.27;6.75;;;17.90;34.10;;;;;;5011960;28;20480;-73
2023/05/31 06:54:50;;;;;;;16.50;6.90;;;18.00;34.00;;;;;;5012114;28;20893;-74
2023/05/31 06:57:16;;;;;;;15.40;7.10;;;18.10;32.60;;;;;;5011663;28;20417;-73
2023/05/31 06:59:41;;;;;;;12.53;6.20;;;18.20;32.30;;;;;;5011767;28;20396;-72
2023/05/31 07:02:07;;;;;;;12.70;6.60;;;18.30;31.70;;;;;;5011721;28;20468;-74
2023/05/31 07:04:33;;;;;;;13.18;6.80;;;18.40;29.80;;;;;;5012419;28;20449;-73
2023/05/31 07:06:58;;;;;;;13.90;6.40;;;18.50;29.90;;;;;;5012378;28;20436;-74
2023/05/31 07:09:24;;;;;;;11.03;5.97;;;18.60;29.80;;;;;;5012166;28;20436;-74
2023/05/31 07:11:49;;;;;;;15.63;6.80;;;18.70;28.80;;;;;;5012454;28;20476;-73
2023/05/31 07:14:15;;;;;;;12.33;6.67;;;18.90;30.10;;;;;;5016172;28;20373;-72
2023/05/31 07:16:40;;;;;;;12.53;7.13;;;19.00;29.10;;;;;;5030612;28;20388;-73
2023/05/31 07:19:06;;;;;;;13.40;7.05;;;19.00;29.00;;;;;;5028036;28;20388;-72
2023/05/31 07:21:32;;;;;;;13.70;7.13;;;18.80;30.50;;;;;;5024599;28;20866;-74
2023/05/31 07:23:58;;;;;;;13.38;6.78;;;18.80;30.60;;;;;;5015541;28;20392;-73
2023/05/31 07:26:23;;;;;;;14.27;7.47;;;18.90;29.90;;;;;;5015518;28;20503;-73
2023/05/31 07:28:52;;;;;;;13.30;6.73;;;19.00;30.40;;;;;;5013515;28;20401;-75
2023/05/31 07:31:18;;;;;;;15.48;6.93;;;19.00;29.00;;;;;;5013717;28;20479;-74
2023/05/31 07:33:44;;;;;;;13.00;6.80;;;19.00;28.80;;;;;;5013561;28;20471;-75
2023/05/31 07:36:10;;;;;;;11.95;7.28;;;19.10;29.00;;;;;;5015192;28;20882;-74
2023/05/31 07:38:36;;;;;;;11.17;6.60;;;19.10;28.60;;;;;;5015132;28;20438;-73
2023/05/31 07:41:02;;;;;;;17.50;7.77;;;19.10;28.00;;;;;;5015012;28;20393;-73
2023/05/31 07:43:29;;;;;;;19.40;7.10;;;19.20;28.30;;;;;;5015152;28;20702;-73
2023/05/31 07:45:56;;;;;;;11.80;6.50;;;19.20;28.50;;;;;;5015229;28;20388;-73
2023/05/31 07:48:21;;;;;;;16.27;7.30;;;19.20;27.80;;;;;;5015462;28;20381;-73
2023/05/31 07:50:47;;;;;;;12.50;7.40;;;19.30;28.10;;;;;;5014906;28;20968;-72
2023/05/31 07:53:13;;;;;;;18.90;7.23;;;19.50;27.20;;;;;;5014968;28;20384;-72
2023/05/31 07:55:39;;;;;;;16.50;6.60;;;19.40;27.20;;;;;;5014722;28;20385;-75
2023/05/31 07:58:05;;;;;;;13.87;6.80;;;19.40;27.90;;;;;;5013764;28;20408;-73
2023/05/31 08:00:31;;;;;;;10.57;6.20;;;19.40;27.00;;;;;;5015193;28;20389;-73
2023/05/31 08:02:56;;;;;;;8.43;6.30;;;19.40;27.40;;;;;;5020019;28;20392;-73
2023/05/31 08:05:22;;;;;;;16.30;6.40;;;19.50;27.00;;;;;;5023080;28;20462;-74
2023/05/31 08:07:48;;;;;;;17.17;6.93;;;19.60;27.40;;;;;;5024062;28;20474;-74
2023/05/31 08:10:14;;;;;;;15.43;6.50;;;19.80;26.30;;;;;;5024792;28;20384;-73
2023/05/31 08:12:40;;;;;;;11.02;6.50;;;20.00;25.60;;;;;;5023736;28;20443;-72
2023/05/31 08:15:07;;;;;;;12.10;5.87;;;20.20;24.00;;;;;;5026532;28;20437;-73
2023/05/31 08:17:32;;;;;;;14.48;6.05;;;20.10;23.70;;;;;;5022115;28;20943;-73
2023/05/31 08:19:58;;;;;;;13.07;6.40;;;20.10;23.50;;;;;;5023115;28;20396;-73
2023/05/31 08:22:23;;;;;;;12.37;5.73;;;20.10;24.20;;;;;;5024069;28;20404;-73
2023/05/31 08:24:49;;;;;;;8.55;5.60;;;20.20;22.70;;;;;;5024335;28;20393;-74
2023/05/31 08:27:17;;;;;;;9.77;6.15;;;20.30;21.40;;;;;;5025214;28;20557;-72
2023/05/31 08:29:43;;;;;;;11.32;5.82;;;20.40;21.30;;;;;;5028619;28;20447;-72
2023/05/31 08:32:08;;;;;;;11.25;5.70;;;20.70;20.20;;;;;;5032252;28;20592;-73
2023/05/31 08:34:34;;;;;;;13.63;5.40;;;20.80;20.50;;;;;;5022156;28;20381;-74
2023/05/31 08:37:00;;;;;;;9.75;5.10;;;21.00;19.30;;;;;;5015904;28;20396;-74
2023/05/31 08:39:25;;;;;;;9.20;5.03;;;21.00;18.80;;;;;;5016696;28;20423;-74
2023/05/31 08:42:03;;;;;;;11.20;5.40;;;21.10;18.60;;;;;;5016313;28;20393;-72
2023/05/31 08:44:29;;;;;;;11.50;5.40;;;21.10;18.30;;;;;;5016304;28;20385;-73
2023/05/31 08:47:19;;;;;;;11.20;4.97;;;21.20;18.30;;;;;;5014033;28;20870;-72
2023/05/31 08:49:45;;;;;;;10.88;4.65;;;21.30;17.50;;;;;;5013598;28;20400;-73
2023/05/31 08:52:12;;;;;;;14.25;5.35;;;21.60;17.80;;;;;;5013459;28;20420;-74
2023/05/31 08:54:38;;;;;;;13.15;4.65;;;21.80;17.40;;;;;;5013482;28;20381;-75
2023/05/31 08:57:05;;;;;;;6.88;4.43;;;21.80;15.70;;;;;;5013668;28;20389;-72
2023/05/31 08:59:33;;;;;;;9.73;4.90;;;21.90;14.30;;;;;;5014013;28;20448;-74
2023/05/31 09:02:00;;;;;;;8.95;3.80;;;22.00;16.40;;;;;;5016272;28;20388;-73
2023/05/31 09:04:26;;;;;;;10.95;5.00;;;22.10;14.00;;;;;;5014094;28;20381;-73
2023/05/31 09:06:52;;;;;;;12.88;5.40;;;22.20;15.00;;;;;;5012998;28;20411;-73
2023/05/31 09:09:18;;;;;;;10.27;4.70;;;22.10;15.30;;;;;;5013376;28;20396;-73
2023/05/31 09:11:44;;;;;;;7.38;4.32;;;21.90;15.00;;;;;;5013133;28;20476;-74
2023/05/31 09:14:10;;;;;;;9.52;4.78;;;21.90;15.70;;;;;;5012875;28;21005;-72
2023/05/31 09:16:36;;;;;;;8.35;5.00;;;21.90;16.20;;;;;;5013050;28;20483;-72
2023/05/31 09:19:04;;;;;;;11.83;5.43;;;22.10;16.10;;;;;;5022354;28;20389;-73
2023/05/31 09:21:42;;;;;;;12.65;4.47;;;22.20;14.80;;;;;;5022875;28;20572;-72
2023/05/31 09:24:10;;;;;;;9.20;4.22;;;22.20;14.00;;;;;;5023600;28;20903;-73
2023/05/31 09:26:46;;;;;;;12.60;4.80;;;22.30;13.30;;;;;;5018819;28;20943;-75
2023/05/31 09:29:12;;;;;;;12.52;4.60;;;22.30;13.90;;;;;;5022788;28;20477;-73
2023/05/31 09:31:37;;;;;;;12.07;4.50;;;22.40;14.00;;;;;;5018225;28;20513;-73
2023/05/31 09:34:03;;;;;;;11.10;4.37;;;22.40;12.70;;;;;;5017691;28;20385;-72
2023/05/31 09:36:30;;;;;;;12.20;4.90;;;22.30;12.40;;;;;;5016857;28;20746;-73
2023/05/31 09:39:04;;;;;;;8.40;4.60;;;22.30;13.30;;;;;;5016593;28;20439;-73
2023/05/31 09:41:31;;;;;;;9.32;4.50;;;22.30;13.20;;;;;;5017691;28;20377;-73
2023/05/31 09:43:57;;;;;;;9.02;4.20;;;22.30;12.10;;;;;;5018716;28;20510;-74
2023/05/31 09:46:24;;;;;;;11.48;4.15;;;22.30;12.00;;;;;;5015462;28;20491;-73
2023/05/31 09:49:06;;;;;;;9.55;4.72;;;22.40;12.00;;;;;;5015407;28;20443;-73
2023/05/31 09:51:33;;;;;;;14.50;4.25;;;22.60;13.40;;;;;;5014290;28;20385;-71
2023/05/31 09:54:07;;;;;;;10.60;4.28;;;22.80;11.10;;;;;;5016192;28;20412;-73
2023/05/31 09:56:36;;;;;;;9.90;3.90;;;22.90;9.70;;;;;;5017626;28;20385;-73
2023/05/31 09:59:03;;;;;;;9.45;3.83;;;22.90;7.40;;;;;;5019903;28;20392;-74
2023/05/31 10:01:30;;;;;;;7.38;4.00;;;22.80;7.00;;;;;;5016959;28;20514;-73
2023/05/31 10:03:55;;;;;;;8.90;4.00;;;22.80;8.20;;;;;;5018576;28;20384;-74
2023/05/31 10:06:21;;;;;;;10.73;4.00;;;22.80;7.80;;;;;;5019852;28;20818;-74
2023/05/31 10:08:47;;;;;;;11.40;4.35;;;22.90;9.00;;;;;;5019874;28;20397;-73
2023/05/31 10:11:26;;;;;;;14.32;4.13;;;22.90;9.70;;;;;;5018908;28;20470;-74
2023/05/31 10:14:00;;;;;;;9.68;4.10;;;23.10;8.90;;;;;;5017161;28;20401;-73
2023/05/31 10:16:28;;;;;;;10.52;4.40;;;23.10;9.40;;;;;;5018931;28;20396;-73
2023/05/31 10:19:01;;;;;;;8.55;3.85;;;23.10;8.30;;;;;;5017130;28;20385;-73
2023/05/31 10:21:28;;;;;;;10.15;4.15;;;23.20;8.60;;;;;;5018225;28;20388;-74
2023/05/31 10:24:05;;;;;;;7.82;4.18;;;23.30;8.40;;;;;;5017265;28;20380;-74
2023/05/31 10:27:23;;;;;;;6.07;3.63;;;23.30;8.90;;;;;;5018531;28;20404;-72
2023/05/31 10:29:54;;;;;;;11.73;4.40;;;23.40;8.10;;;;;;4993952;28;20412;-73
2023/05/31 10:32:23;;;;;;;8.30;3.92;;;23.50;7.80;;;;;;5017519;28;20448;-73
2023/05/31 10:34:50;;;;;;;7.97;3.80;;;23.50;8.70;;;;;;5012889;28;20465;-73
2023/05/31 10:37:16;;;;;;;9.57;4.03;;;23.60;7.60;;;;;;5013904;28;20532;-73
2023/05/31 10:39:55;;;;;;;10.43;3.75;;;23.60;8.10;;;;;;5015064;28;20454;-73
2023/05/31 10:42:40;;;;;;;8.95;3.70;;;23.50;7.10;;;;;;5014199;28;20385;-72
2023/05/31 10:45:11;;;;;;;7.67;3.90;;;23.50;7.80;;;;;;5012294;28;20757;-73
2023/05/31 10:47:54;;;;;;;13.10;4.10;;;23.60;7.10;;;;;;5013415;28;20901;-73
2023/05/31 10:50:20;;;;;;;11.45;3.63;;;23.60;7.20;;;;;;5014676;28;20774;-75
2023/05/31 10:53:07;;;;;;;8.35;3.63;;;23.60;8.10;;;;;;5017270;28;20381;-73
2023/05/31 10:55:43;;;;;;;12.65;3.90;;;23.80;6.80;;;;;;5019241;28;20396;-75
2023/05/31 10:58:36;;;;;;;7.28;3.42;;;23.80;6.50;;;;;;5012929;28;20396;-73
2023/05/31 11:01:04;;;;;;;7.72;3.83;;;23.70;6.70;;;;;;5011903;28;20993;-72
2023/05/31 11:03:33;;;;;;;11.52;3.75;;;23.70;6.20;;;;;;5011937;28;20389;-73
2023/05/31 11:06:06;;;;;;;9.20;3.60;;;23.70;6.80;;;;;;5011215;28;20393;-73
2023/05/31 11:08:32;;;;;;;5.82;3.30;;;23.80;6.20;;;;;;5010007;28;20464;-73
2023/05/31 11:11:32;;;;;;;10.07;3.72;;;23.60;6.10;;;;;;5012886;28;20742;-72
2023/05/31 11:14:08;;;;;;;8.13;3.45;;;23.80;7.20;;;;;;5011798;28;20384;-72
2023/05/31 11:16:56;;;;;;;10.30;3.55;;;23.90;5.50;;;;;;5011511;28;20384;-73
2023/05/31 11:19:28;;;;;;;9.17;3.80;;;23.80;5.70;;;;;;5011519;28;20391;-73
2023/05/31 11:21:55;;;;;;;8.40;3.63;;;23.80;7.20;;;;;;5012420;28;20933;-73
2023/05/31 11:24:50;;;;;;;8.48;3.75;;;24.00;7.40;;;;;;5013775;28;20455;-73
2023/05/31 11:27:16;;;;;;;6.60;3.30;;;24.20;5.20;;;;;;5011655;28;20444;-73
2023/05/31 11:29:48;;;;;;;15.32;3.50;;;24.00;5.50;;;;;;5012524;28;20392;-72
2023/05/31 11:32:18;;;;;;;8.20;3.50;;;24.00;6.10;;;;;;5011772;28;20777;-72
2023/05/31 11:34:56;;;;;;;10.52;4.00;;;24.10;6.50;;;;;;5010594;28;20447;-72
2023/05/31 11:37:26;;;;;;;11.02;3.55;;;24.10;6.00;;;;;;5011540;28;20396;-71
2023/05/31 11:39:54;;;;;;;9.80;3.90;;;24.10;5.80;;;;;;5010897;28;20389;-74
2023/05/31 11:42:20;;;;;;;9.25;3.50;;;24.20;5.90;;;;;;5010687;28;20750;-74
2023/05/31 11:44:46;;;;;;;8.20;3.73;;;24.30;6.10;;;;;;5012041;28;20392;-73
2023/05/31 11:47:25;;;;;;;8.37;3.60;;;24.40;5.80;;;;;;5011160;28;20440;-73
2023/05/31 11:49:51;;;;;;;11.00;3.30;;;24.10;5.70;;;;;;5010653;28;20381;-73
2023/05/31 11:52:18;;;;;;;8.02;3.28;;;24.10;6.30;;;;;;5010416;28;20435;-73
2023/05/31 11:54:47;;;;;;;9.90;3.60;;;24.30;5.60;;;;;;5010439;28;20754;-74
2023/05/31 11:57:16;;;;;;;7.38;3.70;;;24.50;7.10;;;;;;5010355;28;20755;-73
2023/05/31 11:59:42;;;;;;;8.27;3.47;;;24.80;6.20;;;;;;5010418;28;20436;-72
2023/05/31 12:02:09;;;;;;;7.85;3.90;;;24.90;5.70;;;;;;5011230;28;20392;-74
2023/05/31 12:04:37;;;;;;;7.55;3.15;;;24.90;4.80;;;;;;5014269;28;20395;-72
2023/05/31 12:07:10;;;;;;;10.20;3.70;;;24.90;5.10;;;;;;5014013;28;20401;-73
2023/05/31 12:09:36;;;;;;;6.35;3.50;;;25.10;4.70;;;;;;5014230;28;20473;-72
2023/05/31 12:12:03;;;;;;;12.30;3.70;;;25.30;5.10;;;;;;5013722;28;20377;-72
2023/05/31 12:14:29;;;;;;;7.50;3.40;;;25.30;4.20;;;;;;5014052;28;20467;-73
2023/05/31 12:16:54;;;;;;;9.75;3.60;;;25.10;3.40;;;;;;5014273;28;20447;-72
2023/05/31 12:19:21;;;;;;;8.05;3.20;;;24.80;3.70;;;;;;5014329;28;20416;-73
2023/05/31 12:21:47;;;;;;;9.65;3.30;;;24.70;4.40;;;;;;5027523;28;20385;-72
2023/05/31 12:24:17;;;;;;;9.98;3.33;;;24.60;4.00;;;;;;5025549;28;20754;-73
2023/05/31 12:26:48;;;;;;;10.27;3.13;;;24.50;4.30;;;;;;5017898;28;20488;-73
2023/05/31 12:29:15;;;;;;;10.15;3.42;;;24.60;5.10;;;;;;5014502;28;20408;-72
2023/05/31 12:31:41;;;;;;;5.25;3.33;;;24.70;4.00;;;;;;5013686;28;20389;-72
2023/05/31 12:34:12;;;;;;;5.57;3.08;;;24.90;4.00;;;;;;5013908;28;20387;-73
2023/05/31 12:36:43;;;;;;;8.00;3.10;;;24.90;3.60;;;;;;5013745;28;20432;-73
2023/05/31 12:39:12;;;;;;;11.98;3.03;;;24.90;4.20;;;;;;5013625;28;20408;-74